sensor_id;sensor_type;location;lat;lon;timestamp;P1;durP1;ratioP1;P2;durP2;ratioP2
26113;SDS011;13966;48.828;9.064;2023-04-03T00:00:56;6.57;;;3.03;;
26113;SDS011;13966;48.828;9.064;2023-04-03T00:03:22;5.18;;;3.13;;
26113;SDS011;13966;48.828;9.064;2023-04-03T00:05:48;4.25;;;2.88;;
26113;SDS011;13966;48.828;9.064;2023-04-03T00:08:15;4.95;;;2.90;;
26113;SDS011;13966;48.828;9.064;2023-04-03T00:10:41;5.60;;;3.17;;
26113;SDS011;13966;48.828;9.064;2023-04-03T00:13:07;4.30;;;2.95;;
26113;SDS011;13966;48.828;9.064;2023-04-03T00:15:34;3.45;;;2.70;;
26113;SDS011;13966;48.828;9.064;2023-04-03T00:18:01;4.40;;;3.00;;
26113;SDS011;13966;48.828;9.064;2023-04-03T00:20:27;4.00;;;2.70;;
26113;SDS011;13966;48.828;9.064;2023-04-03T00:22:53;4.78;;;3.00;;
26113;SDS011;13966;48.828;9.064;2023-04-03T00:25:20;8.27;;;3.05;;
26113;SDS011;13966;48.828;9.064;2023-04-03T00:27:46;3.85;;;2.88;;
26113;SDS011;13966;48.828;9.064;2023-04-03T00:30:13;3.70;;;2.58;;
26113;SDS011;13966;48.828;9.064;2023-04-03T00:32:40;3.53;;;2.60;;
26113;SDS011;13966;48.828;9.064;2023-04-03T00:35:06;4.32;;;3.05;;
26113;SDS011;13966;48.828;9.064;2023-04-03T00:37:32;5.07;;;2.80;;
26113;SDS011;13966;48.828;9.064;2023-04-03T00:39:58;5.88;;;2.55;;
26113;SDS011;13966;48.828;9.064;2023-04-03T00:42:24;4.65;;;3.08;;
26113;SDS011;13966;48.828;9.064;2023-04-03T00:47:22;3.70;;;2.65;;
26113;SDS011;13966;48.828;9.064;2023-04-03T00:49:48;4.35;;;2.70;;
26113;SDS011;13966;48.828;9.064;2023-04-03T00:52:16;5.82;;;3.22;;
26113;SDS011;13966;48.828;9.064;2023-04-03T00:54:43;6.63;;;2.92;;
26113;SDS011;13966;48.828;9.064;2023-04-03T00:57:11;3.95;;;2.75;;
26113;SDS011;13966;48.828;9.064;2023-04-03T00:59:41;5.28;;;3.03;;
26113;SDS011;13966;48.828;9.064;2023-04-03T01:02:09;4.18;;;2.70;;
26113;SDS011;13966;48.828;9.064;2023-04-03T01:07:06;4.18;;;2.72;;
26113;SDS011;13966;48.828;9.064;2023-04-03T01:09:33;5.78;;;2.78;;
26113;SDS011;13966;48.828;9.064;2023-04-03T01:14:45;5.53;;;3.10;;
26113;SDS011;13966;48.828;9.064;2023-04-03T01:22:45;5.20;;;3.58;;
26113;SDS011;13966;48.828;9.064;2023-04-03T01:25:15;4.03;;;2.80;;
26113;SDS011;13966;48.828;9.064;2023-04-03T01:27:41;4.70;;;2.85;;
26113;SDS011;13966;48.828;9.064;2023-04-03T01:30:07;4.82;;;2.90;;
26113;SDS011;13966;48.828;9.064;2023-04-03T01:32:33;6.68;;;2.95;;
26113;SDS011;13966;48.828;9.064;2023-04-03T01:34:59;4.72;;;3.10;;
26113;SDS011;13966;48.828;9.064;2023-04-03T01:37:25;4.18;;;2.92;;
26113;SDS011;13966;48.828;9.064;2023-04-03T01:39:51;5.28;;;3.00;;
26113;SDS011;13966;48.828;9.064;2023-04-03T01:42:17;4.32;;;2.65;;
26113;SDS011;13966;48.828;9.064;2023-04-03T01:44:43;5.80;;;3.10;;
26113;SDS011;13966;48.828;9.064;2023-04-03T01:47:10;4.45;;;3.35;;
26113;SDS011;13966;48.828;9.064;2023-04-03T01:49:36;5.10;;;3.20;;
26113;SDS011;13966;48.828;9.064;2023-04-03T01:52:02;5.55;;;3.20;;
26113;SDS011;13966;48.828;9.064;2023-04-03T01:54:28;4.68;;;2.80;;
26113;SDS011;13966;48.828;9.064;2023-04-03T01:56:54;4.78;;;2.97;;
26113;SDS011;13966;48.828;9.064;2023-04-03T01:59:20;4.50;;;3.22;;
26113;SDS011;13966;48.828;9.064;2023-04-03T02:01:46;4.57;;;2.90;;
26113;SDS011;13966;48.828;9.064;2023-04-03T02:04:12;5.50;;;3.10;;
26113;SDS011;13966;48.828;9.064;2023-04-03T02:06:38;6.88;;;3.25;;
26113;SDS011;13966;48.828;9.064;2023-04-03T02:09:04;6.70;;;3.53;;
26113;SDS011;13966;48.828;9.064;2023-04-03T02:11:30;4.88;;;2.88;;
26113;SDS011;13966;48.828;9.064;2023-04-03T02:13:57;6.57;;;3.63;;
26113;SDS011;13966;48.828;9.064;2023-04-03T02:16:23;6.18;;;3.00;;
26113;SDS011;13966;48.828;9.064;2023-04-03T02:18:49;6.65;;;3.40;;
26113;SDS011;13966;48.828;9.064;2023-04-03T02:21:15;7.93;;;3.70;;
26113;SDS011;13966;48.828;9.064;2023-04-03T02:23:41;4.53;;;2.95;;
26113;SDS011;13966;48.828;9.064;2023-04-03T02:26:08;5.05;;;2.78;;
26113;SDS011;13966;48.828;9.064;2023-04-03T02:28:35;5.85;;;3.47;;
26113;SDS011;13966;48.828;9.064;2023-04-03T02:31:01;4.57;;;3.30;;
26113;SDS011;13966;48.828;9.064;2023-04-03T02:33:27;5.88;;;3.65;;
26113;SDS011;13966;48.828;9.064;2023-04-03T02:35:54;4.75;;;3.92;;
26113;SDS011;13966;48.828;9.064;2023-04-03T02:38:20;7.32;;;3.65;;
26113;SDS011;13966;48.828;9.064;2023-04-03T02:40:46;4.93;;;3.42;;
26113;SDS011;13966;48.828;9.064;2023-04-03T02:43:12;3.85;;;2.80;;
26113;SDS011;13966;48.828;9.064;2023-04-03T02:45:38;4.85;;;3.13;;
26113;SDS011;13966;48.828;9.064;2023-04-03T02:48:04;4.82;;;3.03;;
26113;SDS011;13966;48.828;9.064;2023-04-03T02:50:30;4.93;;;3.22;;
26113;SDS011;13966;48.828;9.064;2023-04-03T02:52:56;4.60;;;3.10;;
26113;SDS011;13966;48.828;9.064;2023-04-03T02:55:22;7.57;;;3.47;;
26113;SDS011;13966;48.828;9.064;2023-04-03T02:57:48;4.97;;;3.47;;
26113;SDS011;13966;48.828;9.064;2023-04-03T03:00:14;3.70;;;3.15;;
26113;SDS011;13966;48.828;9.064;2023-04-03T03:02:41;6.38;;;3.35;;
26113;SDS011;13966;48.828;9.064;2023-04-03T03:05:07;3.92;;;3.10;;
26113;SDS011;13966;48.828;9.064;2023-04-03T03:07:33;5.78;;;3.30;;
26113;SDS011;13966;48.828;9.064;2023-04-03T03:09:59;3.95;;;2.95;;
26113;SDS011;13966;48.828;9.064;2023-04-03T03:12:25;4.75;;;2.92;;
26113;SDS011;13966;48.828;9.064;2023-04-03T03:14:51;4.43;;;2.80;;
26113;SDS011;13966;48.828;9.064;2023-04-03T03:17:17;5.57;;;3.10;;
26113;SDS011;13966;48.828;9.064;2023-04-03T03:19:43;5.35;;;3.03;;
26113;SDS011;13966;48.828;9.064;2023-04-03T03:22:10;4.47;;;2.88;;
26113;SDS011;13966;48.828;9.064;2023-04-03T03:24:36;5.15;;;2.83;;
26113;SDS011;13966;48.828;9.064;2023-04-03T03:27:02;4.53;;;2.97;;
26113;SDS011;13966;48.828;9.064;2023-04-03T03:29:28;6.63;;;3.30;;
26113;SDS011;13966;48.828;9.064;2023-04-03T03:31:54;5.85;;;3.15;;
26113;SDS011;13966;48.828;9.064;2023-04-03T03:34:20;4.22;;;2.60;;
26113;SDS011;13966;48.828;9.064;2023-04-03T03:36:46;10.00;;;2.80;;
26113;SDS011;13966;48.828;9.064;2023-04-03T03:39:12;2.88;;;2.50;;
26113;SDS011;13966;48.828;9.064;2023-04-03T03:41:38;5.05;;;2.63;;
26113;SDS011;13966;48.828;9.064;2023-04-03T03:44:04;7.45;;;2.58;;
26113;SDS011;13966;48.828;9.064;2023-04-03T03:46:30;4.80;;;2.40;;
26113;SDS011;13966;48.828;9.064;2023-04-03T03:48:56;5.40;;;2.70;;
26113;SDS011;13966;48.828;9.064;2023-04-03T03:51:22;5.13;;;2.88;;
26113;SDS011;13966;48.828;9.064;2023-04-03T03:53:48;6.22;;;2.53;;
26113;SDS011;13966;48.828;9.064;2023-04-03T03:56:14;4.93;;;2.92;;
26113;SDS011;13966;48.828;9.064;2023-04-03T03:58:40;3.20;;;2.75;;
26113;SDS011;13966;48.828;9.064;2023-04-03T04:01:06;4.55;;;2.90;;
26113;SDS011;13966;48.828;9.064;2023-04-03T04:03:33;3.30;;;2.78;;
26113;SDS011;13966;48.828;9.064;2023-04-03T04:05:59;3.38;;;2.63;;
26113;SDS011;13966;48.828;9.064;2023-04-03T04:08:25;4.50;;;2.80;;
26113;SDS011;13966;48.828;9.064;2023-04-03T04:10:51;3.75;;;2.38;;
26113;SDS011;13966;48.828;9.064;2023-04-03T04:13:17;5.63;;;3.17;;
26113;SDS011;13966;48.828;9.064;2023-04-03T04:15:43;6.30;;;3.28;;
26113;SDS011;13966;48.828;9.064;2023-04-03T04:18:09;3.53;;;2.55;;
26113;SDS011;13966;48.828;9.064;2023-04-03T04:20:35;5.65;;;3.08;;
26113;SDS011;13966;48.828;9.064;2023-04-03T04:23:01;5.53;;;2.88;;
26113;SDS011;13966;48.828;9.064;2023-04-03T04:25:27;4.18;;;2.90;;
26113;SDS011;13966;48.828;9.064;2023-04-03T04:27:53;7.53;;;3.15;;
26113;SDS011;13966;48.828;9.064;2023-04-03T04:30:19;3.85;;;2.65;;
26113;SDS011;13966;48.828;9.064;2023-04-03T04:32:45;5.18;;;3.20;;
26113;SDS011;13966;48.828;9.064;2023-04-03T04:35:11;4.55;;;3.05;;
26113;SDS011;13966;48.828;9.064;2023-04-03T04:37:37;5.20;;;3.60;;
26113;SDS011;13966;48.828;9.064;2023-04-03T04:40:03;5.93;;;3.65;;
26113;SDS011;13966;48.828;9.064;2023-04-03T04:42:29;4.80;;;3.05;;
26113;SDS011;13966;48.828;9.064;2023-04-03T04:44:55;4.45;;;3.15;;
26113;SDS011;13966;48.828;9.064;2023-04-03T04:47:21;4.25;;;2.85;;
26113;SDS011;13966;48.828;9.064;2023-04-03T04:49:47;8.50;;;3.60;;
26113;SDS011;13966;48.828;9.064;2023-04-03T04:52:14;4.55;;;2.90;;
26113;SDS011;13966;48.828;9.064;2023-04-03T04:54:40;4.30;;;3.08;;
26113;SDS011;13966;48.828;9.064;2023-04-03T04:57:06;5.88;;;2.88;;
26113;SDS011;13966;48.828;9.064;2023-04-03T04:59:32;5.60;;;3.05;;
26113;SDS011;13966;48.828;9.064;2023-04-03T05:01:58;3.83;;;2.97;;
26113;SDS011;13966;48.828;9.064;2023-04-03T05:04:24;5.22;;;2.97;;
26113;SDS011;13966;48.828;9.064;2023-04-03T05:06:50;3.63;;;2.58;;
26113;SDS011;13966;48.828;9.064;2023-04-03T05:09:16;3.15;;;2.30;;
26113;SDS011;13966;48.828;9.064;2023-04-03T05:11:42;4.22;;;2.50;;
26113;SDS011;13966;48.828;9.064;2023-04-03T05:14:08;3.90;;;2.92;;
26113;SDS011;13966;48.828;9.064;2023-04-03T05:16:34;4.15;;;2.53;;
26113;SDS011;13966;48.828;9.064;2023-04-03T05:19:00;5.43;;;3.40;;
26113;SDS011;13966;48.828;9.064;2023-04-03T05:21:26;5.85;;;3.00;;
26113;SDS011;13966;48.828;9.064;2023-04-03T05:23:56;3.42;;;2.58;;
26113;SDS011;13966;48.828;9.064;2023-04-03T05:26:22;3.75;;;2.85;;
26113;SDS011;13966;48.828;9.064;2023-04-03T05:28:48;4.72;;;2.90;;
26113;SDS011;13966;48.828;9.064;2023-04-03T05:31:14;6.15;;;3.63;;
26113;SDS011;13966;48.828;9.064;2023-04-03T05:33:40;3.83;;;3.05;;
26113;SDS011;13966;48.828;9.064;2023-04-03T05:36:06;5.03;;;2.90;;
26113;SDS011;13966;48.828;9.064;2023-04-03T05:38:32;4.80;;;3.03;;
26113;SDS011;13966;48.828;9.064;2023-04-03T05:40:58;4.68;;;2.83;;
26113;SDS011;13966;48.828;9.064;2023-04-03T05:43:24;6.18;;;2.70;;
26113;SDS011;13966;48.828;9.064;2023-04-03T05:45:51;5.53;;;3.28;;
26113;SDS011;13966;48.828;9.064;2023-04-03T05:48:17;5.97;;;2.75;;
26113;SDS011;13966;48.828;9.064;2023-04-03T05:50:43;4.63;;;2.63;;
26113;SDS011;13966;48.828;9.064;2023-04-03T05:53:22;3.67;;;2.90;;
26113;SDS011;13966;48.828;9.064;2023-04-03T05:55:50;4.25;;;2.63;;
26113;SDS011;13966;48.828;9.064;2023-04-03T05:58:16;4.15;;;2.78;;
26113;SDS011;13966;48.828;9.064;2023-04-03T06:00:42;3.15;;;2.67;;
26113;SDS011;13966;48.828;9.064;2023-04-03T06:03:08;5.45;;;2.88;;
26113;SDS011;13966;48.828;9.064;2023-04-03T06:05:35;4.82;;;2.97;;
26113;SDS011;13966;48.828;9.064;2023-04-03T06:08:01;3.20;;;2.78;;
26113;SDS011;13966;48.828;9.064;2023-04-03T06:10:28;3.55;;;2.40;;
26113;SDS011;13966;48.828;9.064;2023-04-03T06:12:53;4.93;;;3.30;;
26113;SDS011;13966;48.828;9.064;2023-04-03T06:15:20;7.57;;;3.55;;
26113;SDS011;13966;48.828;9.064;2023-04-03T06:17:47;5.80;;;2.88;;
26113;SDS011;13966;48.828;9.064;2023-04-03T06:20:13;5.18;;;3.20;;
26113;SDS011;13966;48.828;9.064;2023-04-03T06:22:39;6.35;;;2.83;;
26113;SDS011;13966;48.828;9.064;2023-04-03T06:25:05;6.25;;;3.38;;
26113;SDS011;13966;48.828;9.064;2023-04-03T06:27:31;6.55;;;3.22;;
26113;SDS011;13966;48.828;9.064;2023-04-03T06:29:57;6.18;;;3.03;;
26113;SDS011;13966;48.828;9.064;2023-04-03T06:32:23;4.68;;;2.85;;
26113;SDS011;13966;48.828;9.064;2023-04-03T06:34:50;6.22;;;3.10;;
26113;SDS011;13966;48.828;9.064;2023-04-03T06:37:20;7.35;;;3.67;;
26113;SDS011;13966;48.828;9.064;2023-04-03T06:39:46;5.35;;;2.60;;
26113;SDS011;13966;48.828;9.064;2023-04-03T06:42:12;8.07;;;3.35;;
26113;SDS011;13966;48.828;9.064;2023-04-03T06:44:38;4.72;;;3.00;;
26113;SDS011;13966;48.828;9.064;2023-04-03T06:47:04;3.63;;;2.85;;
26113;SDS011;13966;48.828;9.064;2023-04-03T06:49:30;5.82;;;2.80;;
26113;SDS011;13966;48.828;9.064;2023-04-03T06:51:57;5.35;;;3.42;;
26113;SDS011;13966;48.828;9.064;2023-04-03T06:54:23;6.18;;;3.08;;
26113;SDS011;13966;48.828;9.064;2023-04-03T06:56:49;8.80;;;2.83;;
26113;SDS011;13966;48.828;9.064;2023-04-03T06:59:15;6.43;;;2.63;;
26113;SDS011;13966;48.828;9.064;2023-04-03T07:01:42;5.25;;;3.00;;
26113;SDS011;13966;48.828;9.064;2023-04-03T07:04:08;3.25;;;2.60;;
26113;SDS011;13966;48.828;9.064;2023-04-03T07:06:34;3.85;;;2.97;;
26113;SDS011;13966;48.828;9.064;2023-04-03T07:09:00;5.18;;;2.67;;
26113;SDS011;13966;48.828;9.064;2023-04-03T07:11:27;7.53;;;3.38;;
26113;SDS011;13966;48.828;9.064;2023-04-03T07:13:53;6.13;;;3.22;;
26113;SDS011;13966;48.828;9.064;2023-04-03T07:16:19;5.30;;;3.00;;
26113;SDS011;13966;48.828;9.064;2023-04-03T07:18:45;7.85;;;3.40;;
26113;SDS011;13966;48.828;9.064;2023-04-03T07:21:12;9.82;;;3.08;;
26113;SDS011;13966;48.828;9.064;2023-04-03T07:23:38;5.68;;;2.78;;
26113;SDS011;13966;48.828;9.064;2023-04-03T07:26:04;6.85;;;2.80;;
26113;SDS011;13966;48.828;9.064;2023-04-03T07:28:31;5.40;;;3.00;;
26113;SDS011;13966;48.828;9.064;2023-04-03T07:33:26;5.82;;;3.00;;
26113;SDS011;13966;48.828;9.064;2023-04-03T07:35:52;5.45;;;3.20;;
26113;SDS011;13966;48.828;9.064;2023-04-03T07:38:18;6.30;;;2.90;;
26113;SDS011;13966;48.828;9.064;2023-04-03T07:40:48;6.10;;;2.83;;
26113;SDS011;13966;48.828;9.064;2023-04-03T07:43:15;4.43;;;2.53;;
26113;SDS011;13966;48.828;9.064;2023-04-03T07:45:41;11.63;;;3.20;;
26113;SDS011;13966;48.828;9.064;2023-04-03T07:48:08;4.10;;;2.72;;
26113;SDS011;13966;48.828;9.064;2023-04-03T07:50:34;6.00;;;2.90;;
26113;SDS011;13966;48.828;9.064;2023-04-03T07:53:01;7.65;;;4.10;;
26113;SDS011;13966;48.828;9.064;2023-04-03T07:55:27;6.53;;;3.47;;
26113;SDS011;13966;48.828;9.064;2023-04-03T07:57:53;4.57;;;2.95;;
26113;SDS011;13966;48.828;9.064;2023-04-03T08:00:19;9.60;;;3.13;;
26113;SDS011;13966;48.828;9.064;2023-04-03T08:02:45;7.22;;;2.83;;
26113;SDS011;13966;48.828;9.064;2023-04-03T08:05:17;4.60;;;2.83;;
26113;SDS011;13966;48.828;9.064;2023-04-03T08:07:43;6.28;;;3.03;;
26113;SDS011;13966;48.828;9.064;2023-04-03T08:10:09;4.97;;;3.10;;
26113;SDS011;13966;48.828;9.064;2023-04-03T08:12:35;7.18;;;3.33;;
26113;SDS011;13966;48.828;9.064;2023-04-03T08:15:02;3.67;;;2.58;;
26113;SDS011;13966;48.828;9.064;2023-04-03T08:17:28;6.43;;;2.72;;
26113;SDS011;13966;48.828;9.064;2023-04-03T08:19:54;6.50;;;2.72;;
26113;SDS011;13966;48.828;9.064;2023-04-03T08:22:20;7.13;;;3.50;;
26113;SDS011;13966;48.828;9.064;2023-04-03T08:24:46;6.78;;;2.80;;
26113;SDS011;13966;48.828;9.064;2023-04-03T08:27:12;8.07;;;2.35;;
26113;SDS011;13966;48.828;9.064;2023-04-03T08:29:38;4.68;;;2.60;;
26113;SDS011;13966;48.828;9.064;2023-04-03T08:32:04;5.05;;;2.70;;
26113;SDS011;13966;48.828;9.064;2023-04-03T08:34:31;5.32;;;2.80;;
26113;SDS011;13966;48.828;9.064;2023-04-03T08:37:00;4.05;;;3.05;;
26113;SDS011;13966;48.828;9.064;2023-04-03T08:39:25;6.53;;;2.88;;
26113;SDS011;13966;48.828;9.064;2023-04-03T08:41:52;7.82;;;2.83;;
26113;SDS011;13966;48.828;9.064;2023-04-03T08:46:59;4.80;;;2.65;;
26113;SDS011;13966;48.828;9.064;2023-04-03T08:49:47;4.55;;;2.58;;
26113;SDS011;13966;48.828;9.064;2023-04-03T08:52:36;5.50;;;3.13;;
26113;SDS011;13966;48.828;9.064;2023-04-03T08:55:07;5.15;;;2.40;;
26113;SDS011;13966;48.828;9.064;2023-04-03T08:57:40;6.43;;;2.97;;
26113;SDS011;13966;48.828;9.064;2023-04-03T09:00:30;5.80;;;2.78;;
26113;SDS011;13966;48.828;9.064;2023-04-03T09:02:55;7.00;;;3.00;;
26113;SDS011;13966;48.828;9.064;2023-04-03T09:05:31;6.75;;;3.00;;
26113;SDS011;13966;48.828;9.064;2023-04-03T09:07:59;3.58;;;2.30;;
26113;SDS011;13966;48.828;9.064;2023-04-03T09:10:27;5.30;;;2.25;;
26113;SDS011;13966;48.828;9.064;2023-04-03T09:15:32;5.78;;;3.00;;
26113;SDS011;13966;48.828;9.064;2023-04-03T09:17:59;6.00;;;2.95;;
26113;SDS011;13966;48.828;9.064;2023-04-03T09:20:31;4.32;;;2.42;;
26113;SDS011;13966;48.828;9.064;2023-04-03T09:23:27;5.13;;;3.00;;
26113;SDS011;13966;48.828;9.064;2023-04-03T09:25:50;5.95;;;2.58;;
26113;SDS011;13966;48.828;9.064;2023-04-03T09:28:19;4.68;;;2.35;;
26113;SDS011;13966;48.828;9.064;2023-04-03T09:30:45;9.63;;;2.80;;
26113;SDS011;13966;48.828;9.064;2023-04-03T09:33:11;4.90;;;2.60;;
26113;SDS011;13966;48.828;9.064;2023-04-03T09:35:38;5.65;;;3.00;;
26113;SDS011;13966;48.828;9.064;2023-04-03T09:40:45;3.83;;;2.67;;
26113;SDS011;13966;48.828;9.064;2023-04-03T09:43:37;3.95;;;2.40;;
26113;SDS011;13966;48.828;9.064;2023-04-03T09:48:51;4.45;;;2.20;;
26113;SDS011;13966;48.828;9.064;2023-04-03T09:51:18;4.97;;;2.33;;
26113;SDS011;13966;48.828;9.064;2023-04-03T09:53:44;3.60;;;1.90;;
26113;SDS011;13966;48.828;9.064;2023-04-03T09:58:45;3.38;;;1.70;;
26113;SDS011;13966;48.828;9.064;2023-04-03T10:01:29;3.20;;;2.03;;
26113;SDS011;13966;48.828;9.064;2023-04-03T10:04:03;3.00;;;1.67;;
26113;SDS011;13966;48.828;9.064;2023-04-03T10:06:30;7.00;;;1.98;;
26113;SDS011;13966;48.828;9.064;2023-04-03T10:09:01;3.80;;;1.60;;
26113;SDS011;13966;48.828;9.064;2023-04-03T10:11:29;3.17;;;1.70;;
26113;SDS011;13966;48.828;9.064;2023-04-03T10:13:56;5.90;;;2.08;;
26113;SDS011;13966;48.828;9.064;2023-04-03T10:16:29;5.75;;;2.00;;
26113;SDS011;13966;48.828;9.064;2023-04-03T10:21:48;2.53;;;1.92;;
26113;SDS011;13966;48.828;9.064;2023-04-03T10:29:23;3.00;;;1.88;;
26113;SDS011;13966;48.828;9.064;2023-04-03T10:31:53;2.97;;;1.70;;
26113;SDS011;13966;48.828;9.064;2023-04-03T10:34:21;5.05;;;2.38;;
26113;SDS011;13966;48.828;9.064;2023-04-03T10:37:10;3.97;;;1.60;;
26113;SDS011;13966;48.828;9.064;2023-04-03T10:42:13;7.18;;;2.05;;
26113;SDS011;13966;48.828;9.064;2023-04-03T10:47:28;3.38;;;1.80;;
26113;SDS011;13966;48.828;9.064;2023-04-03T10:52:38;3.95;;;2.00;;
26113;SDS011;13966;48.828;9.064;2023-04-03T10:57:32;4.57;;;2.25;;
26113;SDS011;13966;48.828;9.064;2023-04-03T11:00:05;6.20;;;1.77;;
26113;SDS011;13966;48.828;9.064;2023-04-03T11:02:39;4.20;;;1.73;;
26113;SDS011;13966;48.828;9.064;2023-04-03T11:07:50;5.35;;;2.00;;
26113;SDS011;13966;48.828;9.064;2023-04-03T11:10:22;4.30;;;2.00;;
26113;SDS011;13966;48.828;9.064;2023-04-03T11:12:54;5.53;;;2.00;;
26113;SDS011;13966;48.828;9.064;2023-04-03T11:15:24;7.00;;;1.80;;
26113;SDS011;13966;48.828;9.064;2023-04-03T11:18:09;5.15;;;2.17;;
26113;SDS011;13966;48.828;9.064;2023-04-03T11:20:36;3.13;;;1.90;;
26113;SDS011;13966;48.828;9.064;2023-04-03T11:25:30;3.60;;;1.65;;
26113;SDS011;13966;48.828;9.064;2023-04-03T11:27:58;3.67;;;1.70;;
26113;SDS011;13966;48.828;9.064;2023-04-03T11:30:28;3.35;;;1.75;;
26113;SDS011;13966;48.828;9.064;2023-04-03T11:35:22;7.45;;;2.20;;
26113;SDS011;13966;48.828;9.064;2023-04-03T11:37:50;4.38;;;1.85;;
26113;SDS011;13966;48.828;9.064;2023-04-03T11:42:46;2.10;;;1.70;;
26113;SDS011;13966;48.828;9.064;2023-04-03T11:47:53;7.28;;;1.70;;
26113;SDS011;13966;48.828;9.064;2023-04-03T12:05:56;3.38;;;1.88;;
26113;SDS011;13966;48.828;9.064;2023-04-03T12:13:40;4.93;;;1.88;;
26113;SDS011;13966;48.828;9.064;2023-04-03T12:16:20;4.97;;;2.13;;
26113;SDS011;13966;48.828;9.064;2023-04-03T12:23:58;6.55;;;2.10;;
26113;SDS011;13966;48.828;9.064;2023-04-03T12:26:36;4.93;;;1.83;;
26113;SDS011;13966;48.828;9.064;2023-04-03T12:29:10;3.15;;;1.60;;
26113;SDS011;13966;48.828;9.064;2023-04-03T12:32:26;3.25;;;1.60;;
26113;SDS011;13966;48.828;9.064;2023-04-03T12:37:03;3.65;;;1.52;;
26113;SDS011;13966;48.828;9.064;2023-04-03T12:42:11;3.15;;;1.70;;
26113;SDS011;13966;48.828;9.064;2023-04-03T12:45:03;9.55;;;2.53;;
26113;SDS011;13966;48.828;9.064;2023-04-03T12:47:29;4.88;;;1.92;;
26113;SDS011;13966;48.828;9.064;2023-04-03T12:49:58;2.25;;;1.60;;
26113;SDS011;13966;48.828;9.064;2023-04-03T12:52:32;2.75;;;1.85;;
26113;SDS011;13966;48.828;9.064;2023-04-03T12:55:00;5.35;;;1.70;;
26113;SDS011;13966;48.828;9.064;2023-04-03T12:57:29;3.80;;;1.90;;
26113;SDS011;13966;48.828;9.064;2023-04-03T12:59:55;4.80;;;1.83;;
26113;SDS011;13966;48.828;9.064;2023-04-03T13:02:32;3.55;;;1.60;;
26113;SDS011;13966;48.828;9.064;2023-04-03T13:04:59;5.07;;;2.03;;
26113;SDS011;13966;48.828;9.064;2023-04-03T13:07:31;3.30;;;1.77;;
26113;SDS011;13966;48.828;9.064;2023-04-03T13:10:19;4.82;;;1.85;;
26113;SDS011;13966;48.828;9.064;2023-04-03T13:13:26;4.63;;;1.58;;
26113;SDS011;13966;48.828;9.064;2023-04-03T13:15:41;4.60;;;1.80;;
26113;SDS011;13966;48.828;9.064;2023-04-03T13:20:52;4.85;;;2.42;;
26113;SDS011;13966;48.828;9.064;2023-04-03T13:23:20;3.65;;;1.90;;
26113;SDS011;13966;48.828;9.064;2023-04-03T13:25:47;3.95;;;2.10;;
26113;SDS011;13966;48.828;9.064;2023-04-03T13:28:15;6.25;;;1.95;;
26113;SDS011;13966;48.828;9.064;2023-04-03T13:30:56;2.65;;;1.67;;
26113;SDS011;13966;48.828;9.064;2023-04-03T13:33:23;4.80;;;2.20;;
26113;SDS011;13966;48.828;9.064;2023-04-03T13:36:16;3.20;;;1.90;;
26113;SDS011;13966;48.828;9.064;2023-04-03T13:38:36;2.67;;;1.98;;
26113;SDS011;13966;48.828;9.064;2023-04-03T13:41:20;5.97;;;2.10;;
26113;SDS011;13966;48.828;9.064;2023-04-03T13:43:46;3.28;;;1.80;;
26113;SDS011;13966;48.828;9.064;2023-04-03T13:48:41;4.88;;;1.90;;
26113;SDS011;13966;48.828;9.064;2023-04-03T13:56:36;6.32;;;2.38;;
26113;SDS011;13966;48.828;9.064;2023-04-03T13:59:05;4.10;;;1.85;;
26113;SDS011;13966;48.828;9.064;2023-04-03T14:01:42;5.63;;;1.70;;
26113;SDS011;13966;48.828;9.064;2023-04-03T14:04:13;2.88;;;1.50;;
26113;SDS011;13966;48.828;9.064;2023-04-03T14:06:39;5.75;;;2.08;;
26113;SDS011;13966;48.828;9.064;2023-04-03T14:09:05;8.55;;;2.88;;
26113;SDS011;13966;48.828;9.064;2023-04-03T14:11:31;3.38;;;1.80;;
26113;SDS011;13966;48.828;9.064;2023-04-03T14:14:00;3.40;;;1.48;;
26113;SDS011;13966;48.828;9.064;2023-04-03T14:16:28;2.70;;;1.52;;
26113;SDS011;13966;48.828;9.064;2023-04-03T14:18:55;3.00;;;1.40;;
26113;SDS011;13966;48.828;9.064;2023-04-03T14:21:21;5.03;;;1.80;;
26113;SDS011;13966;48.828;9.064;2023-04-03T14:23:47;4.22;;;1.85;;
26113;SDS011;13966;48.828;9.064;2023-04-03T14:26:18;4.07;;;2.10;;
26113;SDS011;13966;48.828;9.064;2023-04-03T14:28:46;3.67;;;1.85;;
26113;SDS011;13966;48.828;9.064;2023-04-03T14:31:13;4.18;;;2.00;;
26113;SDS011;13966;48.828;9.064;2023-04-03T14:33:40;4.35;;;1.90;;
26113;SDS011;13966;48.828;9.064;2023-04-03T14:36:13;6.20;;;1.92;;
26113;SDS011;13966;48.828;9.064;2023-04-03T14:38:40;5.15;;;2.10;;
26113;SDS011;13966;48.828;9.064;2023-04-03T14:41:06;3.03;;;1.65;;
26113;SDS011;13966;48.828;9.064;2023-04-03T14:43:32;5.43;;;2.00;;
26113;SDS011;13966;48.828;9.064;2023-04-03T14:45:59;4.85;;;1.90;;
26113;SDS011;13966;48.828;9.064;2023-04-03T14:48:26;5.13;;;2.25;;
26113;SDS011;13966;48.828;9.064;2023-04-03T14:50:53;3.25;;;2.05;;
26113;SDS011;13966;48.828;9.064;2023-04-03T14:53:19;4.07;;;1.98;;
26113;SDS011;13966;48.828;9.064;2023-04-03T14:55:49;3.72;;;1.73;;
26113;SDS011;13966;48.828;9.064;2023-04-03T14:58:17;5.40;;;1.73;;
26113;SDS011;13966;48.828;9.064;2023-04-03T15:00:44;3.03;;;1.50;;
26113;SDS011;13966;48.828;9.064;2023-04-03T15:03:14;4.97;;;1.60;;
26113;SDS011;13966;48.828;9.064;2023-04-03T15:05:44;3.63;;;1.58;;
26113;SDS011;13966;48.828;9.064;2023-04-03T15:10:43;4.03;;;2.03;;
26113;SDS011;13966;48.828;9.064;2023-04-03T15:13:10;6.68;;;2.08;;
26113;SDS011;13966;48.828;9.064;2023-04-03T15:15:37;4.47;;;1.92;;
26113;SDS011;13966;48.828;9.064;2023-04-03T15:18:03;2.97;;;1.50;;
26113;SDS011;13966;48.828;9.064;2023-04-03T15:20:29;5.00;;;1.95;;
26113;SDS011;13966;48.828;9.064;2023-04-03T15:22:58;5.70;;;1.95;;
26113;SDS011;13966;48.828;9.064;2023-04-03T15:25:26;3.72;;;1.70;;
26113;SDS011;13966;48.828;9.064;2023-04-03T15:27:53;2.72;;;1.83;;
26113;SDS011;13966;48.828;9.064;2023-04-03T15:30:19;2.97;;;1.73;;
26113;SDS011;13966;48.828;9.064;2023-04-03T15:32:46;2.75;;;1.70;;
26113;SDS011;13966;48.828;9.064;2023-04-03T15:35:12;2.58;;;1.58;;
26113;SDS011;13966;48.828;9.064;2023-04-03T15:37:38;4.15;;;2.10;;
26113;SDS011;13966;48.828;9.064;2023-04-03T15:40:05;4.38;;;1.55;;
26113;SDS011;13966;48.828;9.064;2023-04-03T15:42:31;4.18;;;2.17;;
26113;SDS011;13966;48.828;9.064;2023-04-03T15:44:57;5.10;;;1.88;;
26113;SDS011;13966;48.828;9.064;2023-04-03T15:47:24;4.82;;;2.08;;
26113;SDS011;13966;48.828;9.064;2023-04-03T15:49:50;4.38;;;1.95;;
26113;SDS011;13966;48.828;9.064;2023-04-03T15:52:16;6.82;;;2.00;;
26113;SDS011;13966;48.828;9.064;2023-04-03T15:54:42;5.43;;;2.22;;
26113;SDS011;13966;48.828;9.064;2023-04-03T15:57:08;5.15;;;2.08;;
26113;SDS011;13966;48.828;9.064;2023-04-03T15:59:34;4.35;;;2.08;;
26113;SDS011;13966;48.828;9.064;2023-04-03T16:02:00;5.15;;;1.92;;
26113;SDS011;13966;48.828;9.064;2023-04-03T16:04:27;4.28;;;2.10;;
26113;SDS011;13966;48.828;9.064;2023-04-03T16:06:53;5.30;;;2.00;;
26113;SDS011;13966;48.828;9.064;2023-04-03T16:09:19;3.17;;;1.70;;
26113;SDS011;13966;48.828;9.064;2023-04-03T16:11:45;5.63;;;2.10;;
26113;SDS011;13966;48.828;9.064;2023-04-03T16:14:11;3.67;;;2.10;;
26113;SDS011;13966;48.828;9.064;2023-04-03T16:16:37;5.20;;;1.83;;
26113;SDS011;13966;48.828;9.064;2023-04-03T16:19:03;3.92;;;2.00;;
26113;SDS011;13966;48.828;9.064;2023-04-03T16:21:29;2.65;;;2.13;;
26113;SDS011;13966;48.828;9.064;2023-04-03T16:23:56;4.97;;;2.05;;
26113;SDS011;13966;48.828;9.064;2023-04-03T16:26:23;5.13;;;1.92;;
26113;SDS011;13966;48.828;9.064;2023-04-03T16:28:50;4.15;;;1.90;;
26113;SDS011;13966;48.828;9.064;2023-04-03T16:31:16;4.35;;;2.22;;
26113;SDS011;13966;48.828;9.064;2023-04-03T16:33:42;4.07;;;2.00;;
26113;SDS011;13966;48.828;9.064;2023-04-03T16:36:08;5.05;;;2.13;;